Time;durP1;ratioP1;P1;durP2;ratioP2;P2;SDS_P1;SDS_P2;PMS_P1;PMS_P2;Temp;Humidity;BMP_temperature;BMP_pressure;BME280_temperature;BME280_humidity;BME280_pressure;Samples;Min_cycle;Max_cycle;Signal;HPM_P1;HPM_P2
2021/11/05 00:02:13;;;;;;;13.32;7.55;;;6.50;99.90;;;;;;5032268;28;20033;-49
2021/11/05 00:04:38;;;;;;;15.25;7.93;;;6.40;99.90;;;;;;5031682;28;20128;-49
2021/11/05 00:07:05;;;;;;;13.77;7.13;;;6.40;99.90;;;;;;5028922;28;20525;-49
2021/11/05 00:09:31;;;;;;;13.60;7.32;;;6.30;99.90;;;;;;5027249;28;20037;-50
2021/11/05 00:11:56;;;;;;;12.15;6.07;;;6.30;99.90;;;;;;5030101;28;20061;-49
2021/11/05 00:14:22;;;;;;;13.48;6.65;;;6.30;99.90;;;;;;5020236;28;20038;-49
2021/11/05 00:16:47;;;;;;;13.02;7.03;;;6.30;99.90;;;;;;5028213;28;20540;-52
2021/11/05 00:19:13;;;;;;;11.05;6.55;;;6.30;99.90;;;;;;5032151;28;20476;-49
2021/11/05 00:21:39;;;;;;;12.23;7.00;;;6.30;99.90;;;;;;5032057;28;20547;-49
2021/11/05 00:24:05;;;;;;;13.50;6.30;;;6.40;99.90;;;;;;5026712;28;20052;-49
2021/11/05 00:26:34;;;;;;;12.20;6.30;;;6.30;99.90;;;;;;5013694;28;20045;-49
2021/11/05 00:29:07;;;;;;;11.93;6.38;;;6.30;99.90;;;;;;5030925;28;20497;-49
2021/11/05 00:31:32;;;;;;;10.70;6.57;;;6.30;99.90;;;;;;5031408;28;20386;-50
2021/11/05 00:33:58;;;;;;;10.18;6.30;;;6.30;99.90;;;;;;5031711;28;20095;-52
2021/11/05 00:36:23;;;;;;;10.82;6.03;;;6.20;99.90;;;;;;5031941;28;20033;-49
2021/11/05 00:38:49;;;;;;;11.57;6.07;;;6.20;99.90;;;;;;5030948;28;20143;-49
2021/11/05 00:41:18;;;;;;;10.95;5.55;;;6.20;99.90;;;;;;5030944;28;20108;-49
2021/11/05 00:43:44;;;;;;;12.20;5.60;;;6.10;99.90;;;;;;5064310;22;20103;-50
2021/11/05 00:46:11;;;;;;;9.82;5.72;;;6.10;99.90;;;;;;5030841;28;20116;-52
2021/11/05 00:48:37;;;;;;;9.15;5.38;;;6.10;99.90;;;;;;5013655;28;20042;-52
2021/11/05 00:51:06;;;;;;;8.13;4.82;;;6.20;99.90;;;;;;5029697;28;20496;-54
2021/11/05 00:53:38;;;;;;;8.60;5.13;;;6.10;99.90;;;;;;5031299;28;20034;-52
2021/11/05 00:56:04;;;;;;;8.80;4.50;;;6.10;99.90;;;;;;4996707;28;20064;-53
2021/11/05 00:58:29;;;;;;;7.13;4.63;;;6.10;99.90;;;;;;5031146;28;20045;-52
2021/11/05 01:00:55;;;;;;;8.10;4.45;;;6.10;99.90;;;;;;5031430;28;20512;-51
2021/11/05 01:03:23;;;;;;;10.45;4.90;;;6.10;99.90;;;;;;5030659;28;20033;-53
2021/11/05 01:05:49;;;;;;;7.78;4.35;;;6.10;99.90;;;;;;5030816;28;20034;-54
2021/11/05 01:08:15;;;;;;;9.63;4.55;;;6.10;99.90;;;;;;5028600;28;20044;-52
2021/11/05 01:10:42;;;;;;;7.55;4.22;;;6.00;99.90;;;;;;5029589;28;20037;-52
2021/11/05 01:13:08;;;;;;;6.00;3.78;;;6.00;99.90;;;;;;5002345;28;20045;-53
2021/11/05 01:15:34;;;;;;;6.80;3.65;;;6.00;99.90;;;;;;5028110;28;20030;-54
2021/11/05 01:18:00;;;;;;;7.95;3.60;;;6.00;99.90;;;;;;5029241;28;20030;-55
2021/11/05 01:20:26;;;;;;;7.50;4.20;;;6.00;99.90;;;;;;5031198;28;20481;-55
2021/11/05 01:22:52;;;;;;;6.70;3.58;;;6.00;99.90;;;;;;5030632;28;20029;-54
2021/11/05 01:25:17;;;;;;;7.13;3.08;;;6.00;99.90;;;;;;5030489;28;20048;-56
2021/11/05 01:27:45;;;;;;;5.78;3.03;;;6.00;99.90;;;;;;5026767;28;20045;-56
2021/11/05 01:30:12;;;;;;;10.23;3.35;;;5.90;99.90;;;;;;5031085;28;20045;-54
2021/11/05 01:32:39;;;;;;;7.82;3.30;;;5.90;99.90;;;;;;5030404;28;20045;-54
2021/11/05 01:35:05;;;;;;;5.65;3.00;;;6.00;99.90;;;;;;5030696;28;20037;-56
2021/11/05 01:37:31;;;;;;;7.22;3.05;;;6.10;99.90;;;;;;5029461;28;20064;-55
2021/11/05 01:39:57;;;;;;;5.20;3.10;;;6.10;99.90;;;;;;5030785;28;20030;-55
2021/11/05 01:42:23;;;;;;;6.35;3.88;;;6.20;99.90;;;;;;5030903;28;20037;-55
2021/11/05 01:44:49;;;;;;;6.68;3.25;;;6.20;99.90;;;;;;4996128;28;20041;-56
2021/11/05 01:47:15;;;;;;;10.40;2.95;;;6.20;99.90;;;;;;5030621;28;20382;-56
2021/11/05 01:49:40;;;;;;;6.43;2.85;;;6.20;99.90;;;;;;5027267;28;20441;-56
2021/11/05 01:52:07;;;;;;;7.63;3.08;;;6.20;99.90;;;;;;5028608;28;20037;-53
2021/11/05 01:54:33;;;;;;;6.28;2.55;;;6.20;99.90;;;;;;5028133;28;20045;-52
2021/11/05 01:56:59;;;;;;;4.18;2.58;;;6.30;99.90;;;;;;5028945;28;20505;-55
2021/11/05 01:59:32;;;;;;;5.25;2.58;;;6.30;99.90;;;;;;5011214;28;20037;-55
2021/11/05 02:02:00;;;;;;;3.65;2.38;;;6.40;99.90;;;;;;5028824;28;20071;-53
2021/11/05 02:04:26;;;;;;;5.20;2.13;;;6.30;99.90;;;;;;5028498;28;20054;-56
2021/11/05 02:06:54;;;;;;;7.25;2.72;;;6.30;99.90;;;;;;5029977;28;20052;-54
2021/11/05 02:09:22;;;;;;;7.25;2.60;;;6.30;99.90;;;;;;5032735;28;20378;-53
2021/11/05 02:11:49;;;;;;;5.32;2.47;;;6.30;99.90;;;;;;5034303;28;20044;-53
2021/11/05 02:14:21;;;;;;;7.10;3.10;;;6.30;99.90;;;;;;5032380;28;20045;-53
2021/11/05 02:16:50;;;;;;;8.98;3.47;;;6.30;99.90;;;;;;5034144;28;20489;-52
2021/11/05 02:19:19;;;;;;;6.65;3.30;;;6.30;99.90;;;;;;5033772;28;20108;-52
2021/11/05 02:21:47;;;;;;;6.65;3.47;;;6.30;99.90;;;;;;5033927;28;20029;-53
2021/11/05 02:24:14;;;;;;;7.25;2.80;;;6.30;99.90;;;;;;5034399;28;20048;-54
2021/11/05 02:26:41;;;;;;;5.47;3.08;;;6.30;99.90;;;;;;5034128;28;20171;-56
2021/11/05 02:29:07;;;;;;;5.75;2.72;;;6.20;99.90;;;;;;5033284;28;20124;-50
2021/11/05 02:31:34;;;;;;;6.30;2.78;;;6.20;99.90;;;;;;5033061;28;20042;-54
2021/11/05 02:33:59;;;;;;;5.07;2.85;;;6.10;99.90;;;;;;5033359;28;20041;-52
2021/11/05 02:36:26;;;;;;;4.85;3.00;;;6.10;99.90;;;;;;5033942;28;20394;-53
2021/11/05 02:38:55;;;;;;;8.02;3.00;;;6.00;99.90;;;;;;5032688;28;20484;-52
2021/11/05 02:41:21;;;;;;;8.02;2.90;;;6.00;99.90;;;;;;5033597;28;20033;-52
2021/11/05 02:43:51;;;;;;;6.20;2.80;;;6.00;99.90;;;;;;5033360;28;20323;-52
2021/11/05 02:46:17;;;;;;;7.53;3.08;;;5.90;99.90;;;;;;5031322;28;20525;-54
2021/11/05 02:48:42;;;;;;;7.05;3.05;;;5.90;99.90;;;;;;5032873;28;20032;-52
2021/11/05 02:51:09;;;;;;;6.05;2.83;;;5.90;99.90;;;;;;5033951;28;20044;-53
2021/11/05 02:53:38;;;;;;;5.43;2.65;;;5.90;99.90;;;;;;5033818;28;20120;-51
2021/11/05 02:56:05;;;;;;;7.60;2.90;;;5.90;99.90;;;;;;5024031;28;20485;-52
2021/11/05 02:58:31;;;;;;;9.00;2.92;;;5.90;99.90;;;;;;5033045;28;20375;-52
2021/11/05 03:00:59;;;;;;;5.28;2.83;;;5.90;99.90;;;;;;5032850;28;20520;-53
2021/11/05 03:03:24;;;;;;;9.20;2.90;;;5.90;99.90;;;;;;5033372;28;20056;-52
2021/11/05 03:05:50;;;;;;;5.20;2.90;;;5.90;99.90;;;;;;5033012;28;20045;-53
2021/11/05 03:19:45;;;;;;;5.15;3.00;;;5.80;99.90;;;;;;5388423;22;20049;-81
2021/11/05 03:22:14;;;;;;;5.20;3.08;;;5.80;99.90;;;;;;5014619;28;20033;-81
2021/11/05 03:24:40;;;;;;;8.02;3.33;;;5.90;99.90;;;;;;5013867;28;20051;-81
2021/11/05 03:27:05;;;;;;;6.13;2.80;;;5.90;99.90;;;;;;5012366;28;20041;-81
2021/11/05 03:29:31;;;;;;;5.82;2.72;;;5.90;99.90;;;;;;4997258;28;20037;-81
2021/11/05 03:31:57;;;;;;;6.13;2.75;;;5.90;99.90;;;;;;4987337;28;20037;-81
2021/11/05 03:34:23;;;;;;;7.05;3.35;;;5.90;99.90;;;;;;4994417;23;20097;-52
2021/11/05 03:36:49;;;;;;;5.20;2.42;;;5.90;99.90;;;;;;4978502;28;20043;-52
2021/11/05 03:39:14;;;;;;;5.93;2.58;;;6.00;99.90;;;;;;4987198;28;20039;-49
2021/11/05 03:41:40;;;;;;;8.15;3.00;;;6.00;99.90;;;;;;4974168;28;20057;-49
2021/11/05 03:44:06;;;;;;;9.65;3.05;;;6.00;99.90;;;;;;4971538;28;20038;-49
2021/11/05 03:46:32;;;;;;;7.90;2.80;;;6.00;99.90;;;;;;4960630;28;20483;-50
2021/11/05 03:48:59;;;;;;;10.02;3.25;;;6.00;99.90;;;;;;4952963;28;20042;-50
2021/11/05 03:51:25;;;;;;;5.32;2.97;;;6.10;99.90;;;;;;4964145;28;20040;-49
2021/11/05 03:53:51;;;;;;;9.63;3.20;;;6.10;99.90;;;;;;4959548;28;20049;-49
2021/11/05 03:56:17;;;;;;;8.07;2.63;;;6.10;99.90;;;;;;4962922;28;20654;-50
2021/11/05 03:58:42;;;;;;;12.82;3.35;;;6.10;99.90;;;;;;4957248;28;20567;-50
2021/11/05 04:01:08;;;;;;;9.40;3.17;;;6.10;99.90;;;;;;4961554;28;20487;-50
2021/11/05 04:03:33;;;;;;;8.52;2.95;;;6.20;99.90;;;;;;4959912;28;20039;-49
2021/11/05 04:05:59;;;;;;;7.90;3.60;;;6.20;99.90;;;;;;4965690;28;20038;-50
2021/11/05 04:08:27;;;;;;;6.75;2.85;;;6.30;99.90;;;;;;4968910;28;20542;-50
2021/11/05 04:10:53;;;;;;;7.85;3.35;;;6.30;99.90;;;;;;4957526;28;20043;-49
2021/11/05 04:13:19;;;;;;;10.25;3.22;;;6.30;99.90;;;;;;4965683;28;20037;-50
2021/11/05 04:15:44;;;;;;;6.95;3.28;;;6.30;99.90;;;;;;4966023;28;20041;-49
2021/11/05 04:18:10;;;;;;;10.27;3.28;;;6.40;99.90;;;;;;4964874;28;20035;-50
2021/11/05 04:20:35;;;;;;;12.45;3.30;;;6.30;99.90;;;;;;4969192;28;20042;-49
2021/11/05 04:23:06;;;;;;;10.60;3.03;;;6.30;99.90;;;;;;4960992;28;20031;-49
2021/11/05 04:25:36;;;;;;;7.68;3.20;;;6.30;99.90;;;;;;4969712;28;20074;-49
2021/11/05 04:28:02;;;;;;;8.32;3.35;;;6.40;99.90;;;;;;4953282;28;20033;-49
2021/11/05 04:30:28;;;;;;;7.45;3.22;;;6.50;99.90;;;;;;4960223;28;20047;-52
2021/11/05 04:32:54;;;;;;;8.50;3.38;;;6.50;99.90;;;;;;4965872;28;20035;-50
2021/11/05 04:35:19;;;;;;;13.45;3.50;;;6.60;99.90;;;;;;4961267;28;20039;-49
2021/11/05 04:37:45;;;;;;;9.35;3.53;;;6.60;99.90;;;;;;4967194;28;20086;-50
2021/11/05 04:40:10;;;;;;;10.38;3.13;;;6.70;99.90;;;;;;4962160;28;20032;-52
2021/11/05 04:42:36;;;;;;;11.15;3.83;;;6.70;99.90;;;;;;4966670;28;20135;-51
2021/11/05 04:45:03;;;;;;;9.40;3.30;;;6.80;99.90;;;;;;4963473;28;20043;-50
2021/11/05 04:47:29;;;;;;;7.80;3.28;;;6.80;99.90;;;;;;4959278;28;20051;-51
2021/11/05 04:49:54;;;;;;;6.55;3.05;;;6.80;99.90;;;;;;4965843;28;20045;-49
2021/11/05 04:52:20;;;;;;;6.13;2.85;;;6.90;99.90;;;;;;4959111;28;20039;-49
2021/11/05 04:54:46;;;;;;;9.25;2.90;;;6.90;99.90;;;;;;4966905;28;20506;-52
2021/11/05 04:57:11;;;;;;;7.97;3.28;;;6.90;99.90;;;;;;4962393;28;20174;-50
2021/11/05 04:59:37;;;;;;;6.90;2.67;;;6.90;99.90;;;;;;4965808;28;20505;-52
2021/11/05 05:02:03;;;;;;;6.20;2.25;;;6.90;99.90;;;;;;4960537;28;20043;-49
2021/11/05 05:04:29;;;;;;;7.78;2.10;;;6.90;99.90;;;;;;4959590;28;20118;-49
2021/11/05 05:06:54;;;;;;;12.48;2.28;;;6.90;99.90;;;;;;4964252;28;20121;-49
2021/11/05 05:09:23;;;;;;;8.70;2.10;;;6.90;99.90;;;;;;4961754;28;20050;-49
2021/11/05 05:11:49;;;;;;;7.72;1.92;;;6.90;99.90;;;;;;4968816;28;20119;-50
2021/11/05 05:14:15;;;;;;;10.73;2.25;;;6.90;99.90;;;;;;4961155;28;20039;-50
2021/11/05 05:16:42;;;;;;;5.82;1.98;;;6.90;99.90;;;;;;4968519;28;20121;-49
2021/11/05 05:19:07;;;;;;;9.07;1.92;;;6.90;99.90;;;;;;4962430;28;20283;-49
2021/11/05 05:21:34;;;;;;;7.38;2.20;;;6.80;99.90;;;;;;4960458;28;20115;-50
2021/11/05 05:23:59;;;;;;;5.20;1.95;;;6.80;99.90;;;;;;4960908;28;20045;-50
2021/11/05 05:26:25;;;;;;;6.53;1.95;;;6.80;99.90;;;;;;4964131;28;20039;-49
2021/11/05 05:28:50;;;;;;;6.18;1.65;;;6.80;99.90;;;;;;4963246;28;20450;-49
2021/11/05 05:31:16;;;;;;;7.07;1.70;;;6.80;99.90;;;;;;4953641;28;20540;-51
2021/11/05 05:33:42;;;;;;;6.28;1.83;;;6.70;99.90;;;;;;4962853;28;20038;-50
2021/11/05 05:36:08;;;;;;;6.95;1.70;;;6.80;99.90;;;;;;4953585;28;20035;-50
2021/11/05 05:38:35;;;;;;;5.53;1.90;;;6.80;99.90;;;;;;4964206;28;20047;-50
2021/11/05 05:41:01;;;;;;;6.30;1.73;;;6.80;99.90;;;;;;4959985;28;20094;-50
2021/11/05 05:43:27;;;;;;;7.68;1.88;;;6.80;99.90;;;;;;4969194;28;20094;-50
2021/11/05 05:45:53;;;;;;;6.35;1.50;;;6.70;99.90;;;;;;4967612;28;20042;-52
2021/11/05 05:48:19;;;;;;;9.60;2.10;;;6.80;99.90;;;;;;4956149;28;20114;-50
2021/11/05 05:50:45;;;;;;;7.57;1.67;;;6.80;99.90;;;;;;4966906;28;20530;-49
2021/11/05 05:53:10;;;;;;;6.97;1.77;;;6.80;99.90;;;;;;4960807;28;20070;-52
2021/11/05 05:55:38;;;;;;;8.25;1.65;;;6.80;99.90;;;;;;4961406;28;20504;-49
2021/11/05 05:58:04;;;;;;;11.40;1.90;;;6.80;99.90;;;;;;4963775;28;20494;-49
2021/11/05 06:00:31;;;;;;;8.48;2.00;;;6.70;99.90;;;;;;4957815;28;20523;-50
2021/11/05 06:02:57;;;;;;;13.40;1.85;;;6.70;99.90;;;;;;4962204;28;20038;-50
2021/11/05 06:05:22;;;;;;;9.60;1.88;;;6.80;99.90;;;;;;4957305;28;20047;-50
2021/11/05 06:07:48;;;;;;;10.18;1.55;;;6.70;99.90;;;;;;4968614;28;20039;-50
2021/11/05 06:10:13;;;;;;;7.97;1.75;;;6.80;99.90;;;;;;4967706;28;20052;-50
2021/11/05 06:12:39;;;;;;;8.40;1.50;;;6.70;99.90;;;;;;4954063;28;20488;-53
2021/11/05 06:15:05;;;;;;;4.68;1.70;;;6.70;99.90;;;;;;4968304;28;20034;-50
2021/11/05 06:17:31;;;;;;;5.13;1.60;;;6.70;99.90;;;;;;4962614;28;20039;-50
2021/11/05 06:19:56;;;;;;;7.15;1.55;;;6.70;99.90;;;;;;4965121;28;20037;-50
2021/11/05 06:22:22;;;;;;;8.07;1.77;;;6.70;99.90;;;;;;4957711;28;20051;-50
2021/11/05 06:24:48;;;;;;;6.82;1.98;;;6.70;99.90;;;;;;4955355;28;20042;-52
2021/11/05 06:27:13;;;;;;;11.18;2.15;;;6.70;99.90;;;;;;4971941;28;20390;-53
2021/11/05 06:29:39;;;;;;;6.35;1.85;;;6.70;99.90;;;;;;4968802;28;20138;-50
2021/11/05 06:32:05;;;;;;;6.07;1.88;;;6.60;99.90;;;;;;4963100;28;20070;-50
2021/11/05 06:34:32;;;;;;;11.02;2.00;;;6.90;99.90;;;;;;4970221;28;20038;-50
2021/11/05 06:36:57;;;;;;;7.18;2.00;;;6.60;99.90;;;;;;4956678;28;20097;-50
2021/11/05 06:39:24;;;;;;;6.30;1.90;;;6.60;99.90;;;;;;4964902;28;20451;-50
2021/11/05 06:41:50;;;;;;;6.38;2.10;;;6.60;99.90;;;;;;4965099;28;20043;-50
2021/11/05 06:44:15;;;;;;;5.97;1.77;;;6.60;99.90;;;;;;4962216;28;20093;-50
2021/11/05 06:46:41;;;;;;;12.15;2.47;;;6.60;99.90;;;;;;4956908;28;20523;-50
2021/11/05 06:49:07;;;;;;;12.20;2.67;;;6.60;99.90;;;;;;4965987;28;20053;-50
2021/11/05 06:51:33;;;;;;;6.65;1.85;;;6.50;99.90;;;;;;4969986;28;20047;-52
2021/11/05 06:53:58;;;;;;;6.18;2.03;;;6.50;99.90;;;;;;4961949;28;20039;-53
2021/11/05 06:56:24;;;;;;;9.52;1.90;;;6.60;99.90;;;;;;4966614;28;20042;-50
2021/11/05 06:58:51;;;;;;;7.15;1.83;;;6.50;99.90;;;;;;4965531;28;20070;-50
2021/11/05 07:01:17;;;;;;;9.73;1.73;;;6.50;99.90;;;;;;4966550;28;20046;-50
2021/11/05 07:03:43;;;;;;;9.55;2.03;;;6.50;99.90;;;;;;4967623;28;20035;-53
2021/11/05 07:06:09;;;;;;;4.28;1.83;;;6.40;99.90;;;;;;4965005;28;20247;-50
2021/11/05 07:08:34;;;;;;;3.00;2.08;;;6.40;99.90;;;;;;4967289;28;20050;-50
2021/11/05 07:11:01;;;;;;;10.15;1.92;;;6.40;99.90;;;;;;4964762;28;20219;-49
2021/11/05 07:13:27;;;;;;;12.25;2.90;;;6.40;99.90;;;;;;4954732;28;20039;-50
2021/11/05 07:15:53;;;;;;;8.05;1.90;;;6.40;99.90;;;;;;4964143;28;20053;-50
2021/11/05 07:18:20;;;;;;;5.82;1.80;;;6.30;99.90;;;;;;4970113;28;20074;-50
2021/11/05 07:20:46;;;;;;;7.68;2.00;;;6.40;99.90;;;;;;4964685;28;20122;-50
2021/11/05 07:23:13;;;;;;;3.97;2.00;;;6.30;99.90;;;;;;4964834;28;20482;-51
2021/11/05 07:25:39;;;;;;;4.25;1.70;;;6.30;99.90;;;;;;4964614;28;20106;-50
2021/11/05 07:28:05;;;;;;;7.80;2.17;;;6.30;99.90;;;;;;4966243;28;20041;-54
2021/11/05 07:30:31;;;;;;;4.65;2.00;;;6.40;99.90;;;;;;4957539;28;20047;-50
2021/11/05 07:32:57;;;;;;;10.43;2.03;;;6.30;99.90;;;;;;4955942;28;20150;-50
2021/11/05 07:35:23;;;;;;;7.80;1.92;;;6.40;99.90;;;;;;4953817;28;20051;-50
2021/11/05 07:37:50;;;;;;;6.32;1.95;;;6.40;99.90;;;;;;4958337;28;20071;-50
2021/11/05 07:40:17;;;;;;;5.63;1.90;;;6.50;99.90;;;;;;4976897;28;20104;-51
2021/11/05 07:42:43;;;;;;;7.78;2.00;;;6.60;99.90;;;;;;4967305;28;20497;-50
2021/11/05 07:45:12;;;;;;;9.57;1.88;;;6.50;99.90;;;;;;4965349;28;20050;-50
2021/11/05 07:47:39;;;;;;;5.10;1.60;;;6.60;99.90;;;;;;4961177;28;20396;-50
2021/11/05 07:50:06;;;;;;;9.30;1.90;;;6.70;99.90;;;;;;4961143;28;20062;-50
2021/11/05 07:52:32;;;;;;;7.47;1.48;;;6.70;99.90;;;;;;4961654;28;20047;-51
2021/11/05 07:54:58;;;;;;;6.35;2.10;;;6.70;99.90;;;;;;4961182;28;20038;-50
2021/11/05 07:57:23;;;;;;;8.07;1.77;;;6.70;99.90;;;;;;4957812;28;20066;-52
2021/11/05 07:59:49;;;;;;;6.22;1.73;;;6.90;99.90;;;;;;4950120;28;20039;-52
2021/11/05 08:02:15;;;;;;;7.40;1.90;;;7.00;99.90;;;;;;4954312;28;20082;-53
2021/11/05 08:04:41;;;;;;;7.00;2.33;;;7.10;99.90;;;;;;4939862;28;20051;-53
2021/11/05 08:07:06;;;;;;;9.73;1.95;;;7.10;99.90;;;;;;4935629;28;20043;-53
2021/11/05 08:09:32;;;;;;;8.13;2.00;;;7.20;99.90;;;;;;4946233;28;20047;-53
2021/11/05 08:11:58;;;;;;;9.75;2.33;;;7.30;99.90;;;;;;4951266;28;20594;-50
2021/11/05 08:14:23;;;;;;;12.90;2.08;;;7.50;99.90;;;;;;4954294;28;20035;-51
2021/11/05 08:16:49;;;;;;;11.98;1.95;;;7.60;99.90;;;;;;4955870;28;20118;-53
2021/11/05 08:19:14;;;;;;;9.30;2.38;;;7.60;99.90;;;;;;4954671;28;20522;-50
2021/11/05 08:21:40;;;;;;;8.20;2.22;;;7.70;99.90;;;;;;4955704;28;20039;-50
2021/11/05 08:24:06;;;;;;;7.45;2.08;;;7.80;99.90;;;;;;4957479;28;20039;-50
2021/11/05 08:26:32;;;;;;;13.02;2.40;;;7.80;99.90;;;;;;4952861;28;20043;-50
2021/11/05 08:28:58;;;;;;;10.07;2.63;;;8.00;99.90;;;;;;4958697;28;20039;-52
2021/11/05 08:31:25;;;;;;;8.38;2.10;;;8.00;99.90;;;;;;4953075;28;20404;-55
2021/11/05 08:33:51;;;;;;;10.65;2.95;;;8.00;99.90;;;;;;4952723;28;20389;-50
2021/11/05 08:36:19;;;;;;;9.93;2.05;;;8.10;99.90;;;;;;4953068;28;20151;-54
2021/11/05 08:38:45;;;;;;;10.88;2.83;;;8.20;99.90;;;;;;4953011;28;20039;-52
2021/11/05 08:41:16;;;;;;;9.00;2.40;;;8.20;99.90;;;;;;4956949;28;20032;-50
2021/11/05 08:43:42;;;;;;;8.15;1.88;;;8.30;99.90;;;;;;4956835;28;20039;-53
2021/11/05 08:46:08;;;;;;;9.93;2.53;;;8.30;99.90;;;;;;4955274;28;20122;-50
2021/11/05 08:48:34;;;;;;;8.23;2.10;;;8.40;99.90;;;;;;4955178;28;20134;-56
2021/11/05 08:51:05;;;;;;;13.60;2.15;;;8.40;99.90;;;;;;4958383;28;20496;-53
2021/11/05 08:53:30;;;;;;;8.93;2.15;;;8.50;99.90;;;;;;4955591;28;20054;-54
2021/11/05 08:55:56;;;;;;;7.82;2.10;;;8.40;99.90;;;;;;4960545;28;20038;-53
2021/11/05 08:58:22;;;;;;;10.50;2.03;;;8.50;99.90;;;;;;4955129;28;20035;-50
2021/11/05 09:00:48;;;;;;;11.05;2.10;;;8.60;99.90;;;;;;4953851;28;20051;-53
2021/11/05 09:03:13;;;;;;;11.23;2.47;;;8.60;99.90;;;;;;4952682;28;20546;-50
2021/11/05 09:05:39;;;;;;;7.72;2.58;;;8.60;99.90;;;;;;4950267;28;20050;-51
2021/11/05 09:08:06;;;;;;;9.57;2.83;;;8.70;99.90;;;;;;4953904;28;21458;-53
2021/11/05 09:10:32;;;;;;;7.32;2.20;;;8.70;99.90;;;;;;4954003;28;20039;-55
2021/11/05 09:12:58;;;;;;;10.95;2.65;;;8.80;99.90;;;;;;4952096;28;20043;-54
2021/11/05 09:15:27;;;;;;;9.82;3.20;;;8.80;99.90;;;;;;4953740;28;20058;-52
2021/11/05 09:17:54;;;;;;;6.90;2.90;;;8.90;99.90;;;;;;4952935;28;20178;-54
2021/11/05 09:20:20;;;;;;;9.50;2.80;;;9.00;99.90;;;;;;4960937;28;20456;-53
2021/11/05 09:22:47;;;;;;;11.82;2.75;;;9.00;99.90;;;;;;4932021;28;20067;-55
2021/11/05 09:25:13;;;;;;;8.02;2.80;;;9.10;99.90;;;;;;4966173;28;20085;-52
2021/11/05 09:27:39;;;;;;;7.18;2.67;;;9.20;99.90;;;;;;4955648;28;20078;-53
2021/11/05 09:30:07;;;;;;;10.68;3.03;;;9.20;99.90;;;;;;4960816;28;20106;-50
2021/11/05 09:32:33;;;;;;;8.50;2.35;;;9.40;99.90;;;;;;4966618;28;20082;-53
2021/11/05 09:34:58;;;;;;;9.13;2.47;;;9.40;99.90;;;;;;5042326;22;20072;-54
2021/11/05 09:37:24;;;;;;;8.02;2.08;;;9.50;99.90;;;;;;5030927;28;20100;-53
2021/11/05 09:39:50;;;;;;;5.22;2.00;;;9.50;99.90;;;;;;5025391;28;20041;-51
2021/11/05 09:42:16;;;;;;;6.75;2.20;;;9.60;99.90;;;;;;5030705;28;20037;-55
2021/11/05 09:44:43;;;;;;;5.22;2.15;;;9.60;99.90;;;;;;5021162;28;20184;-54
2021/11/05 09:47:09;;;;;;;5.82;2.40;;;9.70;99.90;;;;;;5017570;28;20056;-54
2021/11/05 09:49:35;;;;;;;4.78;1.98;;;9.70;99.90;;;;;;5026749;28;20041;-52
2021/11/05 09:52:03;;;;;;;9.15;2.50;;;9.70;99.90;;;;;;5018006;28;20115;-53
2021/11/05 09:54:31;;;;;;;7.13;2.92;;;9.80;99.90;;;;;;5026918;28;20041;-52
2021/11/05 09:56:58;;;;;;;6.47;2.28;;;9.80;99.90;;;;;;5025762;28;20038;-53
2021/11/05 09:59:25;;;;;;;7.22;2.40;;;9.80;99.90;;;;;;5030258;28;20034;-52
2021/11/05 10:01:51;;;;;;;9.07;2.20;;;9.90;99.90;;;;;;5028819;28;20045;-53
2021/11/05 10:04:16;;;;;;;7.47;2.05;;;10.00;99.90;;;;;;5017403;28;20042;-54
2021/11/05 10:07:02;;;;;;;5.50;2.05;;;10.10;99.90;;;;;;5021392;28;20041;-53
2021/11/05 10:09:37;;;;;;;8.07;3.00;;;10.10;99.90;;;;;;5026789;28;20042;-53
2021/11/05 10:12:10;;;;;;;8.45;2.03;;;10.10;99.90;;;;;;5027395;28;20129;-54
2021/11/05 10:14:36;;;;;;;7.45;2.00;;;10.10;99.90;;;;;;5011198;28;20251;-53
2021/11/05 10:17:06;;;;;;;6.38;1.77;;;10.20;99.90;;;;;;5008851;28;20038;-54
2021/11/05 10:19:56;;;;;;;8.05;1.70;;;10.20;99.90;;;;;;5027149;28;20077;-54
2021/11/05 10:22:43;;;;;;;5.40;1.40;;;10.20;99.90;;;;;;5026109;28;20441;-52
2021/11/05 10:25:24;;;;;;;3.85;1.48;;;10.30;99.90;;;;;;5026985;28;20401;-54
2021/11/05 10:28:14;;;;;;;8.65;1.60;;;10.30;99.90;;;;;;5013035;28;20049;-55
2021/11/05 10:30:59;;;;;;;3.65;1.48;;;10.40;99.90;;;;;;5025992;28;20445;-54
2021/11/05 10:33:30;;;;;;;4.95;1.60;;;10.50;99.90;;;;;;5031599;28;20124;-54
2021/11/05 10:35:58;;;;;;;5.88;1.75;;;10.50;99.90;;;;;;5025481;28;20497;-53
2021/11/05 10:38:24;;;;;;;2.88;2.03;;;10.60;99.90;;;;;;5033755;28;20109;-54
2021/11/05 10:40:56;;;;;;;4.32;2.00;;;10.60;99.90;;;;;;5030773;28;20531;-55
2021/11/05 10:43:40;;;;;;;4.63;1.60;;;10.70;99.90;;;;;;5028557;28;20051;-54
2021/11/05 10:46:09;;;;;;;4.10;1.50;;;10.70;99.90;;;;;;5032548;28;20041;-55
2021/11/05 10:48:40;;;;;;;4.90;1.73;;;10.80;99.90;;;;;;5032645;28;20505;-54
2021/11/05 10:51:07;;;;;;;3.63;1.50;;;10.80;99.90;;;;;;5033746;28;20033;-53
2021/11/05 10:53:36;;;;;;;3.65;1.40;;;10.90;99.90;;;;;;5030633;28;20034;-52
2021/11/05 10:56:12;;;;;;;5.68;1.30;;;11.00;99.90;;;;;;5032559;28;20077;-52
2021/11/05 10:59:02;;;;;;;6.20;1.67;;;11.10;99.90;;;;;;5026744;28;20577;-55
2021/11/05 11:01:30;;;;;;;7.30;1.65;;;11.20;99.90;;;;;;5002432;28;20068;-53
2021/11/05 11:03:59;;;;;;;4.70;1.40;;;11.30;99.90;;;;;;5030645;28;20033;-52
2021/11/05 11:06:26;;;;;;;5.35;1.20;;;11.40;99.90;;;;;;5015443;28;20040;-54
2021/11/05 11:08:55;;;;;;;2.75;1.40;;;11.40;99.90;;;;;;5032494;28;20033;-54
2021/11/05 11:11:22;;;;;;;5.20;1.33;;;11.40;99.90;;;;;;5016063;28;20104;-53
2021/11/05 11:13:50;;;;;;;5.43;1.38;;;11.50;99.90;;;;;;5031895;28;20117;-55
2021/11/05 11:16:28;;;;;;;5.03;1.40;;;11.50;99.90;;;;;;5033021;28;20041;-53
2021/11/05 11:19:07;;;;;;;6.70;1.40;;;11.50;99.90;;;;;;5032536;28;20433;-53
2021/11/05 11:21:39;;;;;;;2.15;0.80;;;11.50;99.90;;;;;;5023317;28;20164;-55
2021/11/05 11:24:08;;;;;;;3.95;1.15;;;11.50;99.90;;;;;;4998269;28;20501;-55
2021/11/05 11:26:36;;;;;;;4.63;1.30;;;11.50;99.90;;;;;;5029743;28;20042;-55
2021/11/05 11:29:03;;;;;;;5.78;1.10;;;11.60;99.90;;;;;;5032786;28;20398;-55
2021/11/05 11:31:29;;;;;;;8.70;1.20;;;11.60;99.90;;;;;;5031947;28;20079;-54
2021/11/05 11:34:01;;;;;;;7.03;1.30;;;11.60;99.90;;;;;;5032578;28;20127;-55
2021/11/05 11:36:29;;;;;;;2.55;0.73;;;11.50;99.90;;;;;;5031746;28;20104;-55
2021/11/05 11:38:54;;;;;;;4.90;1.08;;;11.50;99.90;;;;;;4997816;28;20072;-54
2021/11/05 11:41:21;;;;;;;3.83;0.85;;;11.50;99.90;;;;;;5032236;28;20499;-54
2021/11/05 11:43:48;;;;;;;3.28;1.10;;;11.50;99.90;;;;;;5015033;28;20042;-53
2021/11/05 11:46:13;;;;;;;5.47;0.90;;;11.50;99.90;;;;;;5032328;28;20033;-53
2021/11/05 11:48:42;;;;;;;5.80;0.90;;;11.40;99.90;;;;;;5032313;28;20042;-54
2021/11/05 11:51:29;;;;;;;6.35;0.93;;;11.30;99.90;;;;;;4998739;28;20033;-55
2021/11/05 11:54:23;;;;;;;3.50;0.80;;;11.20;99.90;;;;;;5032228;28;20033;-54
2021/11/05 11:56:48;;;;;;;3.08;0.70;;;11.10;99.90;;;;;;5028088;28;20057;-54
2021/11/05 11:59:16;;;;;;;3.38;0.85;;;11.00;99.90;;;;;;5032790;28;20088;-54
2021/11/05 12:01:45;;;;;;;1.40;0.70;;;11.00;99.90;;;;;;5032203;28;20120;-55
2021/11/05 12:04:15;;;;;;;8.30;1.33;;;11.00;99.90;;;;;;5032242;28;20424;-52
2021/11/05 12:06:46;;;;;;;3.03;1.00;;;11.00;99.90;;;;;;5031763;28;20033;-54
2021/11/05 12:09:26;;;;;;;5.63;1.10;;;10.90;99.90;;;;;;5032390;28;20041;-53
2021/11/05 12:12:28;;;;;;;4.72;1.17;;;11.00;99.90;;;;;;5031338;28;20079;-54
2021/11/05 12:15:02;;;;;;;10.30;1.50;;;11.00;99.90;;;;;;5032116;28;20440;-53
2021/11/05 12:17:51;;;;;;;5.82;1.00;;;11.00;99.90;;;;;;5042103;28;20076;-51
2021/11/05 12:20:38;;;;;;;2.75;0.98;;;11.10;99.90;;;;;;5019335;28;20049;-48
2021/11/05 12:23:10;;;;;;;6.10;0.98;;;11.30;99.90;;;;;;5024678;28;20025;-52
2021/11/05 12:25:47;;;;;;;6.50;0.55;;;11.40;99.90;;;;;;5031740;28;20041;-52
2021/11/05 12:28:23;;;;;;;4.28;0.70;;;11.30;99.90;;;;;;5026250;28;20052;-50
2021/11/05 12:30:52;;;;;;;2.83;0.50;;;11.20;99.90;;;;;;4978295;28;20041;-49
2021/11/05 12:33:26;;;;;;;3.45;0.50;;;11.10;99.90;;;;;;4989310;28;20050;-52
2021/11/05 12:35:52;;;;;;;3.03;0.50;;;11.00;99.90;;;;;;5028606;28;20410;-49
2021/11/05 12:38:19;;;;;;;3.55;0.55;;;11.00;99.90;;;;;;5031116;28;20490;-50
2021/11/05 12:40:55;;;;;;;3.83;0.80;;;10.90;99.90;;;;;;4996650;28;20047;-50
2021/11/05 12:43:20;;;;;;;2.00;0.50;;;10.90;99.90;;;;;;5027253;28;20077;-49
2021/11/05 12:45:59;;;;;;;2.00;0.47;;;10.80;99.90;;;;;;5029698;28;20066;-53
2021/11/05 12:48:40;;;;;;;3.42;0.77;;;10.80;99.90;;;;;;5027180;28;20038;-50
2021/11/05 12:51:17;;;;;;;2.90;0.70;;;10.80;99.90;;;;;;5019357;28;20045;-49
2021/11/05 12:53:44;;;;;;;4.45;1.15;;;10.70;99.90;;;;;;5025087;28;20042;-51
2021/11/05 12:56:17;;;;;;;4.68;0.80;;;10.70;99.90;;;;;;5030420;28;20057;-49
2021/11/05 12:58:42;;;;;;;5.05;0.98;;;10.80;99.90;;;;;;5030665;28;20057;-51
2021/11/05 13:01:16;;;;;;;2.97;0.95;;;10.80;99.90;;;;;;5025218;28;20056;-49
2021/11/05 13:03:43;;;;;;;4.72;0.70;;;10.70;99.90;;;;;;5027787;28;20041;-49
2021/11/05 13:06:11;;;;;;;5.68;0.82;;;10.80;99.90;;;;;;5025760;28;20052;-49
2021/11/05 13:08:39;;;;;;;6.93;1.10;;;10.80;99.90;;;;;;5030566;28;20040;-51